createdAt,value
2018-01-05T00:01:43.941Z,8.80
2018-01-05T00:04:11.686Z,8.70
2018-01-05T00:06:39.429Z,8.80
2018-01-05T00:09:07.138Z,8.90
2018-01-05T00:11:34.845Z,8.90
2018-01-05T00:14:02.557Z,8.90
2018-01-05T00:16:30.264Z,9.00
2018-01-05T00:18:57.965Z,9.00
2018-01-05T00:21:26.447Z,9.00
2018-01-05T00:23:55.185Z,8.90
2018-01-05T00:26:22.893Z,8.90
2018-01-05T00:28:51.365Z,8.80
2018-01-05T00:31:19.829Z,8.70
2018-01-05T00:33:47.533Z,8.70
2018-01-05T00:36:15.229Z,8.70
2018-01-05T00:38:42.944Z,8.60
2018-01-05T00:41:11.429Z,8.50
2018-01-05T00:43:40.071Z,8.40
2018-01-05T00:46:07.838Z,8.40
2018-01-05T00:48:35.703Z,8.40
2018-01-05T00:51:03.502Z,8.40
2018-01-05T00:53:32.053Z,8.30
2018-01-05T00:55:59.753Z,8.30
2018-01-05T00:58:28.286Z,8.20
2018-01-05T01:00:55.993Z,8.20
2018-01-05T01:03:23.709Z,8.20
2018-01-05T01:05:51.426Z,8.20
2018-01-05T01:08:19.922Z,8.30
2018-01-05T01:10:48.406Z,8.40
2018-01-05T01:13:16.149Z,8.40
2018-01-05T01:15:43.865Z,8.40
2018-01-05T01:18:11.569Z,8.50
2018-01-05T01:20:39.374Z,8.60
2018-01-05T01:23:07.098Z,8.60
2018-01-05T01:25:34.942Z,8.60
2018-01-05T01:28:02.800Z,8.60
2018-01-05T01:30:30.675Z,8.50
2018-01-05T01:32:58.544Z,8.40
2018-01-05T01:35:26.413Z,8.30
2018-01-05T01:37:54.278Z,8.40
2018-01-05T01:40:22.030Z,8.40
2018-01-05T01:42:50.115Z,8.30
2018-01-05T01:45:17.850Z,8.40
2018-01-05T01:47:45.575Z,8.30
2018-01-05T01:50:14.057Z,8.40
2018-01-05T01:52:42.403Z,8.40
2018-01-05T01:55:10.271Z,8.40
2018-01-05T01:57:38.138Z,8.40
2018-01-05T02:00:06.007Z,8.40
2018-01-05T02:02:33.739Z,8.40
2018-01-05T02:05:01.471Z,8.40
2018-01-05T02:07:30.067Z,8.30
2018-01-05T02:09:58.642Z,8.30
2018-01-05T02:12:27.132Z,8.20
2018-01-05T02:14:55.618Z,8.30
2018-01-05T02:17:24.111Z,8.30
2018-01-05T02:19:51.847Z,8.30
2018-01-05T02:22:20.329Z,8.20
2018-01-05T02:24:48.822Z,8.20
2018-01-05T02:27:17.314Z,8.20
2018-01-05T02:29:45.059Z,8.10
2018-01-05T02:32:13.587Z,8.20
2018-01-05T02:34:41.306Z,8.20
2018-01-05T02:37:09.918Z,8.10
2018-01-05T02:39:37.635Z,8.20
2018-01-05T02:42:05.487Z,8.20
2018-01-05T02:44:33.282Z,8.10
2018-01-05T02:47:01.117Z,8.10
2018-01-05T02:49:28.983Z,8.10
2018-01-05T02:51:56.851Z,8.00
2018-01-05T02:54:24.722Z,8.10
2018-01-05T02:56:52.587Z,8.10
2018-01-05T02:59:20.337Z,8.10
2018-01-05T03:01:48.058Z,8.10
2018-01-05T03:04:16.555Z,8.10
2018-01-05T03:06:44.270Z,8.20
2018-01-05T03:09:12.754Z,8.20
2018-01-05T03:11:40.489Z,8.10
2018-01-05T03:14:08.236Z,8.20
2018-01-05T03:16:35.970Z,8.20
2018-01-05T03:19:04.451Z,8.20
2018-01-05T03:21:32.949Z,8.30
2018-01-05T03:24:01.433Z,8.30
2018-01-05T03:26:29.917Z,8.20
2018-01-05T03:28:57.633Z,8.30
2018-01-05T03:31:25.358Z,8.30
2018-01-05T03:33:53.082Z,8.30
2018-01-05T03:36:20.822Z,8.30
2018-01-05T03:38:48.540Z,8.30
2018-01-05T03:41:16.250Z,8.30
2018-01-05T03:43:43.975Z,8.30
2018-01-05T03:46:11.756Z,8.30
2018-01-05T03:48:39.474Z,8.40
2018-01-05T03:51:07.966Z,8.50
2018-01-05T03:53:36.453Z,8.50
2018-01-05T03:56:04.941Z,8.60
2018-01-05T03:58:32.654Z,8.60
2018-01-05T04:01:00.374Z,8.60
2018-01-05T04:03:28.091Z,8.60
2018-01-05T04:05:55.815Z,8.60
2018-01-05T04:08:23.551Z,8.70
2018-01-05T04:10:52.024Z,8.70
2018-01-05T04:13:20.493Z,8.70
2018-01-05T04:15:48.206Z,8.70
2018-01-05T04:18:15.946Z,8.80
2018-01-05T04:20:43.644Z,8.70
2018-01-05T04:23:11.396Z,8.80
2018-01-05T04:25:39.112Z,8.80
2018-01-05T04:28:06.822Z,8.80
2018-01-05T04:30:34.571Z,8.70
2018-01-05T04:33:02.338Z,8.90
2018-01-05T04:35:30.049Z,8.80
2018-01-05T04:37:57.752Z,8.90
2018-01-05T04:40:26.249Z,9.00
2018-01-05T04:42:53.949Z,9.00
2018-01-05T04:45:21.669Z,9.00
2018-01-05T04:47:50.137Z,9.10
2018-01-05T04:50:18.617Z,9.20
2018-01-05T04:52:47.095Z,9.30
2018-01-05T04:55:15.592Z,9.40
2018-01-05T04:57:44.066Z,9.50
2018-01-05T05:00:12.607Z,9.50
2018-01-05T05:02:40.374Z,9.60
2018-01-05T05:05:08.135Z,9.60
2018-01-05T05:07:35.861Z,9.70
2018-01-05T05:10:03.614Z,9.70
2018-01-05T05:12:32.101Z,9.80
2018-01-05T05:14:59.825Z,9.70
2018-01-05T05:17:27.549Z,9.80
2018-01-05T05:19:55.266Z,9.80
2018-01-05T05:22:22.982Z,9.80
2018-01-05T05:24:50.705Z,9.90
2018-01-05T05:27:19.190Z,9.90
2018-01-05T05:29:47.677Z,9.80
2018-01-05T05:32:16.235Z,9.90
2018-01-05T05:34:43.945Z,9.80
2018-01-05T05:37:11.666Z,9.90
2018-01-05T05:39:39.389Z,9.90
2018-01-05T05:42:07.110Z,9.90
2018-01-05T05:44:35.653Z,9.90
2018-01-05T05:47:03.365Z,9.90
2018-01-05T05:49:31.850Z,9.90
2018-01-05T05:52:00.345Z,9.90
2018-01-05T05:54:28.081Z,9.90
2018-01-05T05:56:56.573Z,10.00
2018-01-05T05:59:25.061Z,10.00
2018-01-05T06:01:53.588Z,10.00
2018-01-05T06:04:21.305Z,10.00
2018-01-05T06:06:49.802Z,10.10
2018-01-05T06:09:17.544Z,10.10
2018-01-05T06:11:46.016Z,10.10
2018-01-05T06:14:14.566Z,10.10
2018-01-05T06:16:42.266Z,10.10
2018-01-05T06:19:10.739Z,10.10
2018-01-05T06:21:38.448Z,10.10
2018-01-05T06:24:06.153Z,10.20
2018-01-05T06:26:33.873Z,10.10
2018-01-05T06:29:01.586Z,10.10
2018-01-05T06:31:29.285Z,10.20
2018-01-05T06:33:57.022Z,10.20
2018-01-05T06:36:24.725Z,10.20
2018-01-05T06:38:52.437Z,10.20
2018-01-05T06:41:20.288Z,10.20
2018-01-05T06:43:48.042Z,10.10
2018-01-05T06:46:15.755Z,10.10
2018-01-05T06:48:44.221Z,10.10
2018-01-05T06:51:12.177Z,10.10
2018-01-05T06:53:39.876Z,10.20
2018-01-05T06:56:08.345Z,10.10
2018-01-05T06:58:36.847Z,10.20
2018-01-05T07:01:04.666Z,10.20
2018-01-05T07:03:32.374Z,10.20
2018-01-05T07:06:00.861Z,10.20
2018-01-05T07:08:28.578Z,10.20
2018-01-05T07:10:56.301Z,10.20
2018-01-05T07:13:24.029Z,10.20
2018-01-05T07:15:51.758Z,10.20
2018-01-05T07:18:19.486Z,10.30
2018-01-05T07:20:47.208Z,10.30
2018-01-05T07:23:14.934Z,10.20
2018-01-05T07:25:42.645Z,10.20
2018-01-05T07:28:10.372Z,10.20
2018-01-05T07:30:38.114Z,10.20
2018-01-05T07:33:05.829Z,10.20
2018-01-05T07:35:33.556Z,10.20
2018-01-05T07:38:01.287Z,10.20
2018-01-05T07:40:29.782Z,10.20
2018-01-05T07:42:57.501Z,10.20
2018-01-05T07:45:25.233Z,10.20
2018-01-05T07:47:52.952Z,10.30
2018-01-05T07:50:21.442Z,10.30
2018-01-05T07:52:49.925Z,10.30
2018-01-05T07:55:18.560Z,10.30
2018-01-05T07:57:46.426Z,10.30
2018-01-05T08:00:14.294Z,10.30
2018-01-05T08:02:42.161Z,10.30
2018-01-05T08:05:10.032Z,10.30
2018-01-05T08:07:37.761Z,10.30
2018-01-05T08:10:05.485Z,10.30
2018-01-05T08:12:33.221Z,10.30
2018-01-05T08:15:00.945Z,10.30
2018-01-05T08:17:28.667Z,10.30
2018-01-05T08:19:56.388Z,10.30
2018-01-05T08:22:24.114Z,10.30
2018-01-05T08:24:52.610Z,10.40
2018-01-05T08:27:21.112Z,10.30
2018-01-05T08:29:48.833Z,10.30
2018-01-05T08:32:16.573Z,10.40
2018-01-05T08:34:44.294Z,10.40
2018-01-05T08:37:12.047Z,10.40
2018-01-05T08:39:39.789Z,10.40
2018-01-05T08:42:07.535Z,10.40
2018-01-05T08:44:35.259Z,10.40
2018-01-05T08:47:02.993Z,10.40
2018-01-05T08:49:31.478Z,10.50
2018-01-05T08:51:59.965Z,10.60
2018-01-05T08:54:28.462Z,10.60
2018-01-05T08:56:56.202Z,10.60
2018-01-05T08:59:24.693Z,10.80
2018-01-05T09:01:52.418Z,10.70
2018-01-05T09:04:20.145Z,10.70
2018-01-05T09:06:47.861Z,10.70
2018-01-05T09:09:15.579Z,10.70
2018-01-05T09:11:43.291Z,10.70
2018-01-05T09:14:10.989Z,10.80
2018-01-05T09:16:38.717Z,10.80
2018-01-05T09:19:06.434Z,10.80
2018-01-05T09:21:34.137Z,10.80
2018-01-05T09:24:01.849Z,10.90
2018-01-05T09:26:29.596Z,10.90
2018-01-05T09:28:58.070Z,10.90
2018-01-05T09:31:26.559Z,10.90
2018-01-05T09:33:55.033Z,10.90
2018-01-05T09:36:23.512Z,10.90
2018-01-05T09:38:51.253Z,10.90
2018-01-05T09:41:18.958Z,10.90
2018-01-05T09:43:46.669Z,10.90
2018-01-05T09:46:14.386Z,10.90
2018-01-05T09:48:42.098Z,10.90
2018-01-05T09:51:09.814Z,10.90
2018-01-05T09:53:37.518Z,10.90
2018-01-05T09:56:05.234Z,10.90
2018-01-05T09:58:33.693Z,11.00
2018-01-05T10:01:01.535Z,11.00
2018-01-05T10:03:29.405Z,11.10
2018-01-05T10:05:57.117Z,11.10
2018-01-05T10:08:25.602Z,11.20
2018-01-05T10:10:53.414Z,11.20
2018-01-05T10:13:21.280Z,11.20
2018-01-05T10:15:48.991Z,11.20
2018-01-05T10:18:17.469Z,11.20
2018-01-05T10:20:46.048Z,11.30
2018-01-05T10:23:14.541Z,11.30
2018-01-05T10:25:43.012Z,11.30
2018-01-05T10:28:11.502Z,11.40
2018-01-05T10:30:39.994Z,11.40
2018-01-05T10:33:07.730Z,11.40
2018-01-05T10:35:35.585Z,11.50
2018-01-05T10:38:03.436Z,11.50
2018-01-05T10:40:31.303Z,11.60
2018-01-05T10:42:59.171Z,11.70
2018-01-05T10:45:27.038Z,11.70
2018-01-05T10:47:54.903Z,11.60
2018-01-05T10:50:22.771Z,11.60
2018-01-05T10:52:50.485Z,11.50
2018-01-05T10:55:19.120Z,11.30
2018-01-05T10:57:46.988Z,11.30
2018-01-05T11:00:14.855Z,11.30
2018-01-05T11:02:42.723Z,11.10
2018-01-05T11:05:10.589Z,11.00
2018-01-05T11:07:38.457Z,10.80
2018-01-05T11:10:06.325Z,10.80
2018-01-05T11:12:34.195Z,10.90
2018-01-05T11:15:01.922Z,10.90
2018-01-05T11:17:29.721Z,10.70
2018-01-05T11:19:57.589Z,10.70
2018-01-05T11:22:25.313Z,10.70
2018-01-05T11:24:53.038Z,10.70
2018-01-05T11:27:20.770Z,10.70
2018-01-05T11:29:48.486Z,10.80
2018-01-05T11:32:16.414Z,10.80
2018-01-05T11:34:44.281Z,10.70
2018-01-05T11:37:12.148Z,10.70
2018-01-05T11:39:40.016Z,10.70
2018-01-05T11:42:07.886Z,10.70
2018-01-05T11:44:35.615Z,10.70
2018-01-05T11:47:03.342Z,10.70
2018-01-05T11:49:31.828Z,10.70
2018-01-05T11:52:00.326Z,10.70
2018-01-05T11:54:28.809Z,10.80
2018-01-05T11:56:56.538Z,10.80
2018-01-05T11:59:24.265Z,10.80
2018-01-05T12:01:52.154Z,10.90
2018-01-05T12:04:20.020Z,10.90
2018-01-05T12:06:47.886Z,10.90
2018-01-05T12:09:15.754Z,10.90
2018-01-05T12:11:44.226Z,11.00
2018-01-05T12:14:11.925Z,11.00
2018-01-05T12:16:39.770Z,11.00
2018-01-05T12:19:07.481Z,11.00
2018-01-05T12:21:36.114Z,10.90
2018-01-05T12:24:03.982Z,10.90
2018-01-05T12:26:31.853Z,11.00
2018-01-05T12:28:59.718Z,11.00
2018-01-05T12:31:27.482Z,11.00
2018-01-05T12:33:55.348Z,10.90
2018-01-05T12:36:23.216Z,10.90
2018-01-05T12:38:50.934Z,10.80
2018-01-05T12:41:18.746Z,10.60
2018-01-05T12:43:46.613Z,10.70
2018-01-05T12:46:14.482Z,10.60
2018-01-05T12:48:42.202Z,10.60
2018-01-05T12:51:10.011Z,10.60
2018-01-05T12:53:37.878Z,10.70
2018-01-05T12:56:05.745Z,10.60
2018-01-05T12:58:33.614Z,10.60
2018-01-05T13:01:01.480Z,10.70
2018-01-05T13:03:29.277Z,10.80
2018-01-05T13:05:57.108Z,10.90
2018-01-05T13:08:24.815Z,11.00
2018-01-05T13:10:55.387Z,11.00
2018-01-05T13:13:23.889Z,10.90
2018-01-05T13:15:53.989Z,11.00
2018-01-05T13:18:21.800Z,11.00
2018-01-05T13:20:49.538Z,11.00
2018-01-05T13:23:17.314Z,11.00
2018-01-05T13:25:45.026Z,11.00
2018-01-05T13:28:12.746Z,10.90
2018-01-05T13:30:40.458Z,11.00
2018-01-05T13:33:08.198Z,11.00
2018-01-05T13:35:36.745Z,11.00
2018-01-05T13:38:04.481Z,11.00
2018-01-05T13:40:34.797Z,11.00
2018-01-05T13:43:02.953Z,11.00
2018-01-05T13:45:30.780Z,10.80
2018-01-05T13:47:59.941Z,10.70
2018-01-05T13:50:28.654Z,10.50
2018-01-05T13:52:56.367Z,10.60
2018-01-05T13:55:24.864Z,10.70
2018-01-05T13:57:52.582Z,10.70
2018-01-05T14:00:20.298Z,10.70
2018-01-05T14:02:48.012Z,10.70
2018-01-05T14:05:15.721Z,10.80
2018-01-05T14:07:43.524Z,10.90
2018-01-05T14:10:11.390Z,10.90
2018-01-05T14:12:39.258Z,11.00
2018-01-05T14:15:07.125Z,10.90
2018-01-05T14:17:34.993Z,10.90
2018-01-05T14:20:02.861Z,10.90
2018-01-05T14:22:30.727Z,10.80
2018-01-05T14:24:58.594Z,10.90
2018-01-05T14:27:26.463Z,10.80
2018-01-05T14:29:54.329Z,10.80
2018-01-05T14:32:22.197Z,10.80
2018-01-05T14:34:58.153Z,10.80
2018-01-05T14:37:26.024Z,10.80
2018-01-05T14:39:55.528Z,10.80
2018-01-05T14:42:27.584Z,10.80
2018-01-05T14:44:57.632Z,10.80
2018-01-05T14:47:28.602Z,10.70
2018-01-05T14:49:56.622Z,10.80
2018-01-05T14:52:24.489Z,10.60
2018-01-05T14:54:52.195Z,10.20
2018-01-05T14:57:20.672Z,10.10
2018-01-05T14:59:49.149Z,10.20
2018-01-05T15:02:17.625Z,10.20
2018-01-05T15:04:45.326Z,10.20
2018-01-05T15:07:13.035Z,10.10
2018-01-05T15:09:40.733Z,10.10
2018-01-05T15:12:10.620Z,10.20
2018-01-05T15:14:38.330Z,10.20
2018-01-05T15:17:06.137Z,10.20
2018-01-05T15:19:34.647Z,10.10
2018-01-05T15:22:03.138Z,10.10
2018-01-05T15:24:31.638Z,10.00
2018-01-05T15:26:59.445Z,10.00
2018-01-05T15:29:27.157Z,10.00
2018-01-05T15:31:55.617Z,9.90
2018-01-05T15:34:23.459Z,9.80
2018-01-05T15:36:51.221Z,9.90
2018-01-05T15:39:19.013Z,9.90
2018-01-05T15:41:46.719Z,9.70
2018-01-05T15:44:14.437Z,9.50
2018-01-05T15:46:42.281Z,9.60
2018-01-05T15:49:10.170Z,9.70
2018-01-05T15:51:38.015Z,9.90
2018-01-05T15:54:05.883Z,9.90
2018-01-05T15:56:33.751Z,10.10
2018-01-05T15:59:01.617Z,10.10
2018-01-05T16:01:29.484Z,10.00
2018-01-05T16:03:57.352Z,9.80
2018-01-05T16:06:25.220Z,9.60
2018-01-05T16:08:53.086Z,9.60
2018-01-05T16:11:20.851Z,9.70
2018-01-05T16:13:48.756Z,9.60
2018-01-05T16:16:17.304Z,9.50
2018-01-05T16:18:45.170Z,9.50
2018-01-05T16:21:13.037Z,9.40
2018-01-05T16:23:40.905Z,9.30
2018-01-05T16:26:08.772Z,9.40
2018-01-05T16:28:36.639Z,9.40
2018-01-05T16:31:04.507Z,9.50
2018-01-05T16:33:32.374Z,9.50
2018-01-05T16:36:00.245Z,9.60
2018-01-05T16:38:28.109Z,9.60
2018-01-05T16:40:55.976Z,9.70
2018-01-05T16:43:23.680Z,9.70
2018-01-05T16:45:52.142Z,9.70
2018-01-05T16:48:19.917Z,9.70
2018-01-05T16:50:47.752Z,9.70
2018-01-05T16:53:15.620Z,9.70
2018-01-05T16:55:44.081Z,9.50
2018-01-05T16:58:11.778Z,9.40
2018-01-05T17:00:39.477Z,9.30
2018-01-05T17:03:07.945Z,9.20
2018-01-05T17:05:36.493Z,9.20
2018-01-05T17:08:04.360Z,9.20
2018-01-05T17:10:32.071Z,9.20
2018-01-05T17:12:59.992Z,9.10
2018-01-05T17:15:27.858Z,9.10
2018-01-05T17:17:55.728Z,9.10
2018-01-05T17:20:23.594Z,9.20
2018-01-05T17:22:51.461Z,9.20
2018-01-05T17:25:19.183Z,9.30
2018-01-05T17:27:46.898Z,9.40
2018-01-05T17:30:14.764Z,9.40
2018-01-05T17:32:42.623Z,9.50
2018-01-05T17:35:10.402Z,9.50
2018-01-05T17:37:38.255Z,9.50
2018-01-05T17:40:05.968Z,9.50
2018-01-05T17:42:33.786Z,9.60
2018-01-05T17:45:01.654Z,9.60
2018-01-05T17:47:29.522Z,9.60
2018-01-05T17:49:57.387Z,9.60
2018-01-05T17:52:25.257Z,9.70
2018-01-05T17:54:53.053Z,9.70
2018-01-05T17:57:20.887Z,9.70
2018-01-05T17:59:48.754Z,9.60
2018-01-05T18:02:16.620Z,9.70
2018-01-05T18:04:44.491Z,9.60
2018-01-05T18:07:12.358Z,9.50
2018-01-05T18:09:40.225Z,9.40
2018-01-05T18:12:08.092Z,9.40
2018-01-05T18:14:35.958Z,9.30
2018-01-05T18:17:03.826Z,9.20
2018-01-05T18:19:31.622Z,9.20
2018-01-05T18:21:59.333Z,9.20
2018-01-05T18:24:27.033Z,9.20
2018-01-05T18:26:54.734Z,9.20
2018-01-05T18:29:22.434Z,9.30
2018-01-05T18:31:50.134Z,9.20
2018-01-05T18:34:18.194Z,9.20
2018-01-05T18:36:45.964Z,9.20
2018-01-05T18:39:13.665Z,9.10
2018-01-05T18:41:41.377Z,9.10
2018-01-05T18:44:09.073Z,9.10
2018-01-05T18:46:37.546Z,9.20
2018-01-05T18:49:05.384Z,9.20
2018-01-05T18:51:33.250Z,9.30
2018-01-05T18:54:01.122Z,9.30
2018-01-05T18:56:28.822Z,9.40
2018-01-05T18:58:57.366Z,9.40
2018-01-05T19:01:25.337Z,9.40
2018-01-05T19:03:53.842Z,9.40
2018-01-05T19:06:21.684Z,9.40
2018-01-05T19:08:49.551Z,9.40
2018-01-05T19:11:17.419Z,9.40
2018-01-05T19:13:45.297Z,9.40
2018-01-05T19:16:13.001Z,9.40
2018-01-05T19:18:41.469Z,9.40
2018-01-05T19:21:10.014Z,9.30
2018-01-05T19:23:37.881Z,9.30
2018-01-05T19:26:05.763Z,9.30
2018-01-05T19:28:38.990Z,9.30
2018-01-05T19:31:09.663Z,9.30
2018-01-05T19:33:42.324Z,9.20
2018-01-05T19:36:13.274Z,9.20
2018-01-05T19:38:44.280Z,9.20
2018-01-05T19:41:15.076Z,9.20
2018-01-05T19:43:46.633Z,9.10
2018-01-05T19:46:17.296Z,9.10
2018-01-05T19:48:47.845Z,9.00
2018-01-05T19:51:18.430Z,9.00
2018-01-05T19:53:50.271Z,9.10
2018-01-05T19:56:21.027Z,9.10
2018-01-05T19:58:52.659Z,9.10
2018-01-05T20:01:23.622Z,9.00
2018-01-05T20:03:55.866Z,9.10
2018-01-05T20:06:26.846Z,9.10
2018-01-05T20:08:57.251Z,9.10
2018-01-05T20:11:29.164Z,9.10
2018-01-05T20:14:00.164Z,9.00
2018-01-05T20:16:30.973Z,9.10
2018-01-05T20:19:02.718Z,9.00
2018-01-05T20:21:33.959Z,9.00
2018-01-05T20:24:04.984Z,9.00
2018-01-05T20:26:35.481Z,9.10
2018-01-05T20:29:06.437Z,9.10
2018-01-05T20:34:14.772Z,9.00
2018-01-05T20:36:46.347Z,9.10
2018-01-05T20:39:18.651Z,9.10
2018-01-05T20:41:50.349Z,9.10
2018-01-05T20:44:22.049Z,9.10
2018-01-05T20:46:52.918Z,9.10
2018-01-05T20:49:24.815Z,9.10
2018-01-05T20:51:55.284Z,9.20
2018-01-05T20:54:26.978Z,9.20
2018-01-05T20:56:58.663Z,9.30
2018-01-05T20:59:29.371Z,9.30
2018-01-05T21:02:00.138Z,9.30
2018-01-05T21:04:30.840Z,9.30
2018-01-05T21:07:01.361Z,9.30
2018-01-05T21:09:31.443Z,9.30
2018-01-05T21:12:01.960Z,9.30
2018-01-05T21:14:32.597Z,9.30
2018-01-05T21:17:03.117Z,9.30
2018-01-05T21:19:33.674Z,9.30
2018-01-05T21:22:04.149Z,9.30
2018-01-05T21:24:35.708Z,9.40
2018-01-05T21:27:06.305Z,9.40
2018-01-05T21:29:38.078Z,9.40
2018-01-05T21:32:09.705Z,9.40
2018-01-05T21:34:41.130Z,9.40
2018-01-05T21:37:11.829Z,9.40
2018-01-05T21:39:42.432Z,9.40
2018-01-05T21:42:14.135Z,9.50
2018-01-05T21:44:44.780Z,9.50
2018-01-05T21:47:15.258Z,9.40
2018-01-05T21:49:46.023Z,9.40
2018-01-05T21:52:16.721Z,9.40
2018-01-05T21:54:48.051Z,9.40
2018-01-05T21:57:19.504Z,9.40
2018-01-05T21:59:50.046Z,9.40
2018-01-05T22:02:20.860Z,9.40
2018-01-05T22:04:51.289Z,9.40
2018-01-05T22:07:22.049Z,9.30
2018-01-05T22:09:53.795Z,9.30
2018-01-05T22:12:24.919Z,9.40
2018-01-05T22:14:55.770Z,9.40
2018-01-05T22:17:26.436Z,9.50
2018-01-05T22:19:57.244Z,9.50
2018-01-05T22:22:29.710Z,9.50
2018-01-05T22:25:00.407Z,9.50
2018-01-05T22:27:31.160Z,9.40
2018-01-05T22:30:01.869Z,9.40
2018-01-05T22:32:33.368Z,9.40
2018-01-05T22:35:04.925Z,9.40
2018-01-05T22:37:36.973Z,9.40
2018-01-05T22:40:07.571Z,9.40
2018-01-05T22:42:39.271Z,9.50
2018-01-05T22:45:10.219Z,9.60
2018-01-05T22:47:39.763Z,9.50
2018-01-05T22:50:10.281Z,9.50
2018-01-05T22:52:44.673Z,9.60
2018-01-05T22:55:20.774Z,9.50
2018-01-05T22:57:57.600Z,9.50
2018-01-05T23:00:29.552Z,9.50
2018-01-05T23:03:00.729Z,9.50
2018-01-05T23:05:28.578Z,9.40
2018-01-05T23:07:56.282Z,9.40
2018-01-05T23:10:23.986Z,9.40
2018-01-05T23:12:51.735Z,9.40
2018-01-05T23:15:20.233Z,9.40
2018-01-05T23:17:48.042Z,9.40
2018-01-05T23:20:15.909Z,9.40
2018-01-05T23:22:43.653Z,9.40
2018-01-05T23:25:11.353Z,9.30
2018-01-05T23:27:39.054Z,9.20
2018-01-05T23:30:06.866Z,9.20
2018-01-05T23:32:34.734Z,9.20
2018-01-05T23:35:03.415Z,9.10
2018-01-05T23:37:31.222Z,9.10
2018-01-05T23:39:59.693Z,9.10
2018-01-05T23:42:27.845Z,9.10
2018-01-05T23:44:55.710Z,9.10
2018-01-05T23:47:23.576Z,9.10
2018-01-05T23:49:51.286Z,9.10
2018-01-05T23:52:19.769Z,9.20
2018-01-05T23:54:48.407Z,9.30
2018-01-05T23:57:16.275Z,9.30
2018-01-05T23:59:44.141Z,9.30
